createdAt,value
2019-01-06T00:00:47.160Z,0.00
2019-01-06T00:02:07.352Z,0.25
2019-01-06T00:03:33.339Z,0.00
2019-01-06T00:05:02.569Z,0.00
2019-01-06T00:06:23.087Z,0.00
2019-01-06T00:07:50.899Z,0.00
2019-01-06T00:09:15.377Z,0.00
2019-01-06T00:10:30.679Z,0.00
2019-01-06T00:11:58.144Z,0.50
2019-01-06T00:13:18.172Z,0.00
2019-01-06T00:14:32.339Z,0.00
2019-01-06T00:15:57.639Z,0.00
2019-01-06T00:17:19.438Z,0.50
2019-01-06T00:18:39.666Z,0.00
2019-01-06T00:20:19.465Z,1.00
2019-01-06T00:21:47.397Z,0.00
2019-01-06T00:23:21.122Z,0.00
2019-01-06T00:24:41.486Z,0.00
2019-01-06T00:26:01.415Z,0.00
2019-01-06T00:27:22.045Z,0.00
2019-01-06T00:28:44.079Z,1.75
2019-01-06T00:30:24.106Z,0.00
2019-01-06T00:31:44.707Z,0.00
2019-01-06T00:33:03.788Z,0.00
2019-01-06T00:34:43.635Z,0.00
2019-01-06T00:36:05.273Z,2.00
2019-01-06T00:37:32.467Z,0.00
2019-01-06T00:38:56.914Z,0.00
2019-01-06T00:40:30.820Z,0.00
2019-01-06T00:42:10.477Z,0.00
2019-01-06T00:43:30.265Z,0.00
2019-01-06T00:45:04.040Z,0.00
2019-01-06T00:46:40.557Z,0.00
2019-01-06T00:48:04.740Z,0.00
2019-01-06T00:49:25.788Z,0.00
2019-01-06T00:51:02.766Z,0.00
2019-01-06T00:52:22.800Z,0.00
2019-01-06T00:53:44.342Z,0.00
2019-01-06T00:55:04.063Z,0.00
2019-01-06T00:56:38.065Z,0.00
2019-01-06T00:58:05.674Z,0.00
2019-01-06T00:59:45.265Z,0.00
2019-01-06T01:01:12.735Z,0.00
2019-01-06T01:02:43.489Z,0.00
2019-01-06T01:04:17.426Z,0.00
2019-01-06T01:05:57.194Z,0.00
2019-01-06T01:07:17.743Z,0.00
2019-01-06T01:08:39.627Z,0.00
2019-01-06T01:10:13.405Z,0.00
2019-01-06T01:11:44.534Z,0.00
2019-01-06T01:13:04.510Z,0.00
2019-01-06T01:14:28.525Z,0.00
2019-01-06T01:15:58.985Z,0.00
2019-01-06T01:17:19.015Z,0.00
2019-01-06T01:18:55.482Z,0.25
2019-01-06T01:20:29.850Z,0.00
2019-01-06T01:21:59.109Z,0.00
2019-01-06T01:23:32.309Z,2.00
2019-01-06T01:24:54.902Z,0.00
2019-01-06T01:26:15.866Z,0.00
2019-01-06T01:27:37.543Z,0.00
2019-01-06T01:28:59.097Z,1.00
2019-01-06T01:30:19.071Z,0.00
2019-01-06T01:31:39.965Z,0.00
2019-01-06T01:33:04.573Z,0.00
2019-01-06T01:34:34.122Z,0.00
2019-01-06T01:36:04.991Z,0.00
2019-01-06T01:37:33.736Z,0.00
2019-01-06T01:38:53.788Z,0.00
2019-01-06T01:40:18.311Z,0.00
2019-01-06T01:41:38.482Z,0.00
2019-01-06T01:42:50.730Z,0.00
2019-01-06T01:44:20.607Z,0.00
2019-01-06T01:45:40.722Z,0.00
2019-01-06T01:47:01.111Z,0.00
2019-01-06T01:48:25.316Z,0.00
2019-01-06T01:49:58.922Z,0.00
2019-01-06T01:51:25.191Z,0.00
2019-01-06T01:52:45.528Z,0.00
2019-01-06T01:54:06.286Z,2.00
2019-01-06T01:55:26.228Z,0.00
2019-01-06T01:56:52.122Z,0.00
2019-01-06T01:58:09.531Z,0.00
2019-01-06T01:59:29.579Z,0.00
2019-01-06T02:00:52.521Z,0.00
2019-01-06T02:02:19.396Z,1.00
2019-01-06T02:03:59.261Z,2.00
2019-01-06T02:05:36.285Z,2.00
2019-01-06T02:07:03.792Z,2.00
2019-01-06T02:08:25.763Z,2.00
2019-01-06T02:09:47.334Z,0.00
2019-01-06T02:11:06.970Z,0.00
2019-01-06T02:12:47.143Z,0.00
2019-01-06T02:14:08.706Z,0.00
2019-01-06T02:15:36.289Z,0.00
2019-01-06T02:17:00.617Z,0.00
2019-01-06T02:18:31.997Z,0.00
2019-01-06T02:20:05.269Z,0.00
2019-01-06T02:21:17.127Z,0.00
2019-01-06T02:22:34.670Z,0.00
2019-01-06T02:23:55.038Z,0.00
2019-01-06T02:25:10.031Z,0.00
2019-01-06T02:26:46.806Z,0.00
2019-01-06T02:28:20.161Z,0.50
2019-01-06T02:29:42.270Z,0.00
2019-01-06T02:31:13.213Z,0.00
2019-01-06T02:32:28.426Z,0.00
2019-01-06T02:33:52.901Z,0.00
2019-01-06T02:35:20.718Z,0.50
2019-01-06T02:36:57.727Z,0.00
2019-01-06T02:38:17.700Z,0.00
2019-01-06T02:39:54.765Z,0.00
2019-01-06T02:41:14.782Z,0.00
2019-01-06T02:42:35.343Z,0.00
2019-01-06T02:43:55.530Z,0.00
2019-01-06T02:45:13.940Z,0.00
2019-01-06T02:46:33.949Z,0.00
2019-01-06T02:47:54.619Z,0.00
2019-01-06T02:49:14.519Z,0.75
2019-01-06T02:50:36.222Z,1.25
2019-01-06T02:51:57.865Z,0.00
2019-01-06T02:53:22.918Z,0.00
2019-01-06T02:54:43.080Z,0.00
2019-01-06T02:56:03.192Z,0.00
2019-01-06T02:57:23.371Z,0.00
2019-01-06T02:58:44.206Z,0.00
2019-01-06T03:00:21.065Z,0.00
2019-01-06T03:01:57.581Z,0.00
2019-01-06T03:03:31.249Z,0.00
2019-01-06T03:04:54.984Z,0.00
2019-01-06T03:06:14.945Z,0.00
2019-01-06T03:07:42.306Z,0.00
2019-01-06T03:09:07.161Z,0.00
2019-01-06T03:10:26.962Z,0.00
2019-01-06T03:11:48.516Z,1.00
2019-01-06T03:13:12.959Z,0.00
2019-01-06T03:14:32.952Z,0.00
2019-01-06T03:16:06.706Z,0.00
2019-01-06T03:17:46.741Z,0.00
2019-01-06T03:19:11.305Z,0.00
2019-01-06T03:20:37.872Z,0.00
2019-01-06T03:22:09.057Z,0.00
2019-01-06T03:23:30.738Z,0.00
2019-01-06T03:24:49.936Z,0.00
2019-01-06T03:26:11.632Z,0.00
2019-01-06T03:27:33.943Z,0.00
2019-01-06T03:28:54.068Z,0.00
2019-01-06T03:30:31.008Z,0.00
2019-01-06T03:31:58.976Z,0.00
2019-01-06T03:33:20.907Z,0.00
2019-01-06T03:34:42.561Z,0.00
2019-01-06T03:35:57.961Z,0.00
2019-01-06T03:37:18.125Z,0.00
2019-01-06T03:38:48.988Z,0.00
2019-01-06T03:40:08.895Z,0.00
2019-01-06T03:41:34.898Z,0.00
2019-01-06T03:42:55.069Z,0.00
2019-01-06T03:44:17.090Z,0.00
2019-01-06T03:45:39.291Z,0.00
2019-01-06T03:47:04.042Z,0.00
2019-01-06T03:48:34.864Z,0.00
2019-01-06T03:50:00.351Z,0.00
2019-01-06T03:51:27.869Z,0.00
2019-01-06T03:52:45.629Z,0.00
2019-01-06T03:54:07.269Z,0.00
2019-01-06T03:55:34.187Z,0.00
2019-01-06T03:56:55.992Z,1.75
2019-01-06T03:58:16.960Z,0.50
2019-01-06T03:59:56.754Z,0.00
2019-01-06T04:01:24.785Z,0.00
2019-01-06T04:02:47.066Z,0.00
2019-01-06T04:04:06.076Z,0.00
2019-01-06T04:05:26.009Z,0.00
2019-01-06T04:06:47.832Z,0.00
2019-01-06T04:08:09.350Z,0.00
2019-01-06T04:09:31.141Z,0.00
2019-01-06T04:10:55.797Z,0.00
2019-01-06T04:12:27.068Z,0.00
2019-01-06T04:13:57.915Z,0.00
2019-01-06T04:15:18.013Z,0.00
2019-01-06T04:16:36.887Z,0.00
2019-01-06T04:17:57.531Z,0.00
2019-01-06T04:19:17.465Z,0.50
2019-01-06T04:20:41.804Z,1.25
2019-01-06T04:22:01.877Z,0.00
2019-01-06T04:23:27.119Z,0.00
2019-01-06T04:25:06.654Z,0.00
2019-01-06T04:26:26.940Z,0.00
2019-01-06T04:27:51.456Z,0.25
2019-01-06T04:29:16.805Z,1.75
2019-01-06T04:30:37.046Z,0.00
2019-01-06T04:32:10.594Z,1.75
2019-01-06T04:33:30.801Z,0.00
2019-01-06T04:35:01.829Z,2.00
2019-01-06T04:36:35.519Z,0.50
2019-01-06T04:37:55.888Z,2.00
2019-01-06T04:39:32.367Z,0.50
2019-01-06T04:40:52.219Z,0.00
2019-01-06T04:42:12.049Z,1.75
2019-01-06T04:43:27.388Z,0.50
2019-01-06T04:44:48.917Z,0.00
2019-01-06T04:46:08.593Z,0.00
2019-01-06T04:47:33.016Z,0.50
2019-01-06T04:48:52.034Z,0.00
2019-01-06T04:50:12.541Z,1.00
2019-01-06T04:51:35.264Z,1.50
2019-01-06T04:52:55.058Z,1.50
2019-01-06T04:54:31.697Z,1.75
2019-01-06T04:55:59.236Z,1.00
2019-01-06T04:57:26.473Z,0.00
2019-01-06T04:58:47.245Z,0.00
2019-01-06T05:00:18.696Z,2.00
2019-01-06T05:01:58.520Z,2.00
2019-01-06T05:03:24.403Z,0.00
2019-01-06T05:04:48.794Z,0.50
2019-01-06T05:06:08.421Z,1.50
2019-01-06T05:07:28.795Z,1.00
2019-01-06T05:08:49.144Z,0.50
2019-01-06T05:10:10.915Z,0.00
2019-01-06T05:11:38.442Z,1.00
2019-01-06T05:13:13.059Z,0.00
2019-01-06T05:14:33.729Z,0.50
2019-01-06T05:16:14.382Z,0.00
2019-01-06T05:17:48.136Z,1.50
2019-01-06T05:19:12.633Z,2.00
2019-01-06T05:20:33.022Z,2.00
2019-01-06T05:21:54.244Z,2.00
2019-01-06T05:23:21.508Z,2.00
2019-01-06T05:24:52.102Z,0.00
2019-01-06T05:26:12.194Z,2.00
2019-01-06T05:27:37.288Z,0.00
2019-01-06T05:28:58.834Z,0.00
2019-01-06T05:30:17.331Z,0.00
2019-01-06T05:31:38.980Z,2.00
2019-01-06T05:33:04.140Z,0.50
2019-01-06T05:34:25.723Z,0.00
2019-01-06T05:35:45.927Z,2.00
2019-01-06T05:37:13.337Z,0.00
2019-01-06T05:38:34.002Z,0.00
2019-01-06T05:40:01.814Z,0.00
2019-01-06T05:41:23.400Z,0.00
2019-01-06T05:42:56.863Z,0.50
2019-01-06T05:44:18.460Z,0.00
2019-01-06T05:45:38.244Z,2.00
2019-01-06T05:47:09.054Z,2.00
2019-01-06T05:48:42.382Z,1.50
2019-01-06T05:50:09.626Z,1.50
2019-01-06T05:51:36.724Z,0.00
2019-01-06T05:53:16.480Z,0.00
2019-01-06T05:54:50.019Z,1.50
2019-01-06T05:56:11.615Z,0.00
2019-01-06T05:57:39.116Z,0.50
2019-01-06T05:59:03.714Z,0.00
2019-01-06T06:00:17.785Z,1.00
2019-01-06T06:01:38.847Z,0.50
2019-01-06T06:03:06.965Z,0.00
2019-01-06T06:04:32.115Z,0.00
2019-01-06T06:06:05.632Z,0.00
2019-01-06T06:07:27.362Z,0.00
2019-01-06T06:08:43.695Z,0.00
2019-01-06T06:10:11.004Z,2.00
2019-01-06T06:11:32.612Z,0.00
2019-01-06T06:13:05.477Z,0.00
2019-01-06T06:14:42.415Z,0.00
2019-01-06T06:16:02.560Z,0.50
2019-01-06T06:17:39.209Z,0.00
2019-01-06T06:19:18.975Z,1.00
2019-01-06T06:20:39.816Z,0.00
2019-01-06T06:22:04.275Z,0.00
2019-01-06T06:23:35.008Z,0.00
2019-01-06T06:24:59.340Z,0.00
2019-01-06T06:26:19.268Z,1.00
2019-01-06T06:27:44.135Z,0.00
2019-01-06T06:29:17.560Z,0.00
2019-01-06T06:44:40.682Z,0.00
2019-01-06T06:46:01.692Z,1.00
2019-01-06T06:47:22.090Z,0.00
2019-01-06T06:48:56.639Z,0.00
2019-01-06T06:50:36.858Z,0.00
2019-01-06T06:52:07.191Z,0.50
2019-01-06T06:53:37.610Z,0.00
2019-01-06T06:54:53.522Z,0.00
2019-01-06T06:56:33.170Z,0.00
2019-01-06T06:57:55.145Z,0.00
2019-01-06T06:59:15.103Z,0.00
2019-01-06T07:00:35.318Z,0.00
2019-01-06T07:01:56.925Z,1.75
2019-01-06T07:03:31.554Z,0.50
2019-01-06T07:04:56.382Z,1.00
2019-01-06T07:06:27.361Z,0.00
2019-01-06T07:07:47.051Z,0.00
2019-01-06T07:09:14.514Z,0.00
2019-01-06T07:10:34.731Z,0.50
2019-01-06T07:12:00.061Z,0.00
2019-01-06T07:13:20.308Z,2.00
2019-01-06T07:14:41.900Z,2.00
2019-01-06T07:16:06.727Z,2.00
2019-01-06T07:17:27.281Z,1.00
2019-01-06T07:19:04.742Z,2.00
2019-01-06T07:20:24.941Z,2.00
2019-01-06T07:21:51.577Z,2.00
2019-01-06T07:23:13.945Z,2.00
2019-01-06T07:24:45.212Z,1.00
2019-01-06T07:26:12.709Z,0.00
2019-01-06T07:27:34.242Z,2.00
2019-01-06T07:28:54.831Z,0.00
2019-01-06T07:30:18.387Z,2.00
2019-01-06T07:31:49.231Z,0.00
2019-01-06T07:33:01.309Z,1.00
2019-01-06T07:34:29.108Z,0.50
2019-01-06T07:35:53.718Z,2.00
2019-01-06T07:37:13.681Z,2.00
2019-01-06T07:38:53.557Z,0.50
2019-01-06T07:40:24.278Z,0.00
2019-01-06T07:42:00.900Z,0.00
2019-01-06T07:43:30.921Z,1.50
2019-01-06T07:45:04.329Z,0.00
2019-01-06T07:46:24.662Z,2.00
2019-01-06T07:47:44.512Z,0.00
2019-01-06T07:49:11.777Z,0.00
2019-01-06T07:50:33.276Z,0.00
2019-01-06T07:52:07.349Z,0.50
2019-01-06T07:53:29.447Z,2.00
2019-01-06T07:54:54.026Z,2.00
2019-01-06T07:56:14.041Z,1.50
2019-01-06T07:57:45.105Z,1.00
2019-01-06T07:59:05.051Z,0.00
2019-01-06T08:00:22.135Z,0.50
2019-01-06T08:01:49.985Z,1.50
2019-01-06T08:03:23.879Z,2.00
2019-01-06T08:04:45.387Z,0.00
2019-01-06T08:06:13.140Z,1.00
2019-01-06T08:07:46.579Z,0.00
2019-01-06T08:09:06.944Z,0.00
2019-01-06T08:10:20.534Z,0.00
2019-01-06T08:11:42.191Z,2.00
2019-01-06T08:13:03.541Z,0.00
2019-01-06T08:14:34.086Z,0.00
2019-01-06T08:15:57.670Z,0.50
2019-01-06T08:17:22.031Z,2.00
2019-01-06T08:18:53.716Z,0.50
2019-01-06T08:20:15.231Z,0.00
2019-01-06T08:21:49.106Z,0.00
2019-01-06T08:23:21.958Z,0.00
2019-01-06T08:24:46.630Z,2.00
2019-01-06T08:26:20.292Z,2.50
2019-01-06T08:27:58.159Z,4.00
2019-01-06T08:29:20.193Z,4.00
2019-01-06T08:30:45.219Z,2.00
2019-01-06T08:31:59.300Z,2.00
2019-01-06T08:33:26.935Z,2.00
2019-01-06T08:34:51.531Z,2.00
2019-01-06T08:36:18.860Z,2.00
2019-01-06T08:37:49.380Z,2.00
2019-01-06T08:39:04.548Z,3.00
2019-01-06T08:40:27.010Z,2.50
2019-01-06T08:41:48.104Z,2.00
2019-01-06T08:43:12.424Z,1.50
2019-01-06T08:44:45.845Z,4.00
2019-01-06T08:46:06.406Z,2.00
2019-01-06T08:47:45.993Z,4.00
2019-01-06T08:49:07.512Z,0.00
2019-01-06T08:50:29.176Z,2.50
2019-01-06T08:51:56.615Z,2.00
2019-01-06T08:53:31.727Z,2.50
2019-01-06T08:54:56.677Z,2.00
2019-01-06T08:56:27.262Z,2.00
2019-01-06T08:57:58.018Z,2.00
2019-01-06T08:59:25.464Z,2.00
2019-01-06T09:00:46.888Z,2.00
2019-01-06T09:02:14.407Z,2.00
2019-01-06T09:03:35.128Z,2.00
2019-01-06T09:05:02.112Z,1.50
2019-01-06T09:06:22.589Z,2.00
2019-01-06T09:07:56.149Z,2.00
2019-01-06T09:09:25.594Z,2.00
2019-01-06T09:10:47.198Z,2.00
2019-01-06T09:12:07.760Z,2.00
2019-01-06T09:13:29.435Z,2.00
2019-01-06T09:15:09.337Z,2.00
2019-01-06T09:16:36.592Z,2.00
2019-01-06T09:17:58.224Z,0.50
2019-01-06T09:19:37.869Z,0.50
2019-01-06T09:21:01.661Z,2.00
2019-01-06T09:22:21.558Z,2.00
2019-01-06T09:23:37.341Z,1.50
2019-01-06T09:24:57.379Z,2.00
2019-01-06T09:26:36.822Z,2.00
2019-01-06T09:28:04.801Z,0.50
2019-01-06T09:29:26.348Z,0.00
2019-01-06T09:30:46.434Z,3.00
2019-01-06T09:32:06.292Z,2.00
2019-01-06T09:33:42.817Z,2.00
2019-01-06T09:35:16.748Z,3.00
2019-01-06T09:36:36.353Z,2.00
2019-01-06T09:37:57.930Z,2.00
2019-01-06T09:39:22.455Z,2.00
2019-01-06T09:40:52.607Z,2.00
2019-01-06T09:42:12.680Z,2.00
2019-01-06T09:43:33.295Z,0.50
2019-01-06T09:45:07.045Z,1.50
2019-01-06T09:46:35.017Z,2.00
2019-01-06T09:47:53.251Z,2.00
2019-01-06T09:49:15.088Z,1.50
2019-01-06T09:50:48.719Z,2.00
2019-01-06T09:52:13.422Z,2.50
2019-01-06T09:53:43.590Z,2.50
2019-01-06T09:55:03.872Z,2.00
2019-01-06T09:56:31.125Z,2.00
2019-01-06T09:57:51.183Z,2.00
2019-01-06T09:59:28.413Z,2.00
2019-01-06T10:00:48.387Z,2.00
2019-01-06T10:02:10.134Z,4.00
2019-01-06T10:03:31.863Z,2.00
2019-01-06T10:04:59.794Z,1.75
2019-01-06T10:06:25.241Z,2.00
2019-01-06T10:07:50.092Z,2.00
2019-01-06T10:09:24.509Z,2.50
2019-01-06T10:11:01.737Z,2.00
2019-01-06T10:12:33.871Z,2.00
2019-01-06T10:13:57.036Z,2.00
2019-01-06T10:15:31.574Z,2.00
2019-01-06T10:16:52.108Z,3.00
2019-01-06T10:18:30.943Z,1.50
2019-01-06T10:19:51.233Z,0.50
2019-01-06T10:21:28.098Z,2.00
2019-01-06T10:22:49.062Z,2.00
2019-01-06T10:24:16.203Z,0.00
2019-01-06T10:25:33.919Z,2.00
2019-01-06T10:26:57.495Z,2.00
2019-01-06T10:28:20.731Z,0.50
2019-01-06T10:29:41.328Z,2.00
2019-01-06T10:31:14.662Z,2.50
2019-01-06T10:32:36.257Z,0.00
2019-01-06T10:33:58.115Z,2.00
2019-01-06T10:35:31.368Z,2.00
2019-01-06T10:36:52.309Z,2.00
2019-01-06T10:38:12.670Z,2.00
2019-01-06T10:39:41.053Z,0.00
2019-01-06T10:41:03.150Z,4.00
2019-01-06T10:42:30.656Z,2.00
2019-01-06T10:43:56.509Z,2.00
2019-01-06T10:45:18.515Z,1.50
2019-01-06T10:46:48.727Z,2.00
2019-01-06T10:48:21.874Z,1.00
2019-01-06T10:50:04.320Z,2.00
2019-01-06T10:51:32.356Z,2.00
2019-01-06T10:52:56.980Z,1.00
2019-01-06T10:54:36.356Z,1.00
2019-01-06T10:56:04.140Z,0.50
2019-01-06T10:57:27.490Z,1.00
2019-01-06T10:58:51.187Z,2.00
2019-01-06T11:00:11.119Z,2.00
2019-01-06T11:01:41.321Z,2.00
2019-01-06T11:03:02.026Z,2.00
2019-01-06T11:04:18.488Z,2.00
2019-01-06T11:05:43.368Z,2.25
2019-01-06T11:07:03.237Z,2.00
2019-01-06T11:08:37.034Z,3.75
2019-01-06T11:10:16.542Z,2.50
2019-01-06T11:11:36.474Z,2.00
2019-01-06T11:13:05.311Z,2.00
2019-01-06T11:14:25.566Z,2.00
2019-01-06T11:15:45.801Z,0.50
2019-01-06T11:17:19.299Z,1.75
2019-01-06T11:18:49.213Z,4.00
2019-01-06T11:20:22.954Z,4.00
2019-01-06T11:21:57.624Z,3.50
2019-01-06T11:23:33.672Z,2.00
2019-01-06T11:24:53.777Z,3.00
2019-01-06T11:26:30.497Z,0.00
2019-01-06T11:28:06.300Z,3.50
2019-01-06T11:29:27.037Z,2.00
2019-01-06T11:43:47.479Z,4.00
2019-01-06T11:45:15.956Z,3.00
2019-01-06T11:46:44.551Z,3.00
2019-01-06T11:48:05.260Z,3.00
2019-01-06T11:49:25.584Z,3.00
2019-01-06T11:50:53.105Z,3.00
2019-01-06T11:52:29.494Z,1.00
2019-01-06T11:54:05.850Z,3.50
2019-01-06T11:55:27.479Z,3.50
2019-01-06T11:56:58.373Z,2.50
2019-01-06T11:58:28.114Z,3.00
2019-01-06T11:59:53.110Z,1.00
2019-01-06T12:01:13.514Z,1.00
2019-01-06T12:02:39.166Z,2.50
2019-01-06T12:04:03.384Z,1.00
2019-01-06T12:05:25.261Z,2.25
2019-01-06T12:06:44.937Z,3.25
2019-01-06T12:08:15.453Z,3.75
2019-01-06T12:09:37.798Z,4.25
2019-01-06T12:11:08.676Z,2.00
2019-01-06T12:12:28.459Z,1.75
2019-01-06T12:13:48.567Z,1.75
2019-01-06T12:15:10.822Z,2.25
2019-01-06T12:16:31.582Z,5.00
2019-01-06T12:18:00.698Z,2.00
2019-01-06T12:19:22.370Z,3.75
2019-01-06T12:20:42.234Z,1.75
2019-01-06T12:22:04.993Z,3.25
2019-01-06T12:23:25.124Z,2.75
2019-01-06T12:24:38.882Z,1.50
2019-01-06T12:25:59.209Z,3.00
2019-01-06T12:27:20.833Z,1.00
2019-01-06T12:28:42.873Z,2.00
2019-01-06T12:30:11.603Z,2.00
2019-01-06T12:31:48.290Z,1.00
2019-01-06T12:33:18.784Z,1.75
2019-01-06T12:34:39.033Z,1.75
2019-01-06T12:35:59.216Z,2.00
2019-01-06T12:37:19.148Z,3.75
2019-01-06T12:38:39.148Z,3.00
2019-01-06T12:40:01.037Z,2.50
2019-01-06T12:41:22.621Z,1.00
2019-01-06T12:42:56.454Z,3.00
2019-01-06T12:44:27.065Z,18.25
2019-01-06T12:45:50.747Z,5.75
2019-01-06T12:47:10.701Z,1.75
2019-01-06T12:48:31.901Z,3.75
2019-01-06T12:49:59.295Z,1.00
2019-01-06T12:51:43.450Z,1.75
2019-01-06T12:52:59.370Z,1.75
2019-01-06T12:54:24.664Z,1.75
2019-01-06T12:55:36.470Z,1.75
2019-01-06T12:57:16.738Z,3.00
2019-01-06T12:58:41.974Z,1.75
2019-01-06T13:00:02.261Z,3.75
2019-01-06T13:01:22.802Z,1.75
2019-01-06T13:02:43.351Z,1.00
2019-01-06T13:04:13.922Z,1.00
2019-01-06T13:05:44.564Z,3.75
2019-01-06T13:07:22.720Z,2.75
2019-01-06T13:08:58.582Z,2.25
2019-01-06T13:10:38.282Z,3.75
2019-01-06T13:12:05.727Z,1.75
2019-01-06T13:13:38.101Z,1.75
2019-01-06T13:15:00.045Z,2.75
2019-01-06T13:16:21.668Z,3.75
2019-01-06T13:17:46.463Z,1.00
2019-01-06T13:19:09.452Z,3.25
2019-01-06T13:20:37.900Z,3.25
2019-01-06T13:21:59.806Z,2.25
2019-01-06T13:23:36.322Z,3.25
2019-01-06T13:24:58.719Z,3.75
2019-01-06T13:26:27.262Z,2.75
2019-01-06T13:27:57.053Z,3.00
2019-01-06T13:29:25.498Z,1.75
2019-01-06T13:30:49.918Z,1.75
2019-01-06T13:32:18.000Z,1.75
2019-01-06T13:33:38.097Z,1.75
2019-01-06T13:34:59.035Z,1.75
2019-01-06T13:36:33.842Z,1.00
2019-01-06T13:37:56.617Z,1.75
2019-01-06T13:39:32.965Z,1.75
2019-01-06T13:41:02.465Z,1.75
2019-01-06T13:42:27.016Z,1.75
2019-01-06T13:43:53.852Z,1.75
2019-01-06T13:45:15.769Z,1.75
2019-01-06T13:46:51.039Z,1.75
2019-01-06T13:48:15.722Z,1.75
2019-01-06T13:49:37.915Z,1.75
2019-01-06T13:51:17.700Z,1.75
2019-01-06T13:52:48.432Z,2.00
2019-01-06T13:54:16.273Z,1.75
2019-01-06T13:55:46.603Z,1.75
2019-01-06T13:57:06.681Z,2.25
2019-01-06T13:58:28.493Z,1.75
2019-01-06T14:00:08.687Z,1.75
2019-01-06T14:01:28.733Z,2.00
2019-01-06T14:02:50.109Z,1.75
2019-01-06T14:04:11.729Z,1.75
2019-01-06T14:05:35.349Z,3.75
2019-01-06T14:06:55.451Z,3.25
2019-01-06T14:08:15.620Z,1.00
2019-01-06T14:09:55.321Z,2.50
2019-01-06T14:11:35.619Z,3.25
2019-01-06T14:13:00.982Z,4.00
2019-01-06T14:14:21.255Z,3.75
2019-01-06T14:15:43.689Z,3.75
2019-01-06T14:17:08.794Z,1.75
2019-01-06T14:18:37.419Z,1.25
2019-01-06T14:20:04.991Z,1.00
2019-01-06T14:21:25.705Z,1.75
2019-01-06T14:22:58.118Z,1.00
2019-01-06T14:24:17.886Z,1.75
2019-01-06T14:25:55.152Z,1.00
2019-01-06T14:27:24.168Z,2.00
2019-01-06T14:28:49.142Z,1.75
2019-01-06T14:30:16.911Z,2.75
2019-01-06T14:31:36.816Z,1.75
2019-01-06T14:33:04.562Z,2.25
2019-01-06T14:34:32.269Z,3.25
2019-01-06T14:35:52.534Z,1.75
2019-01-06T14:37:20.292Z,0.75
2019-01-06T14:38:59.842Z,1.75
2019-01-06T14:40:20.312Z,1.00
2019-01-06T14:41:40.369Z,1.75
2019-01-06T14:42:58.651Z,1.75
2019-01-06T14:44:20.961Z,1.75
2019-01-06T14:46:00.673Z,3.75
2019-01-06T14:47:21.330Z,2.00
2019-01-06T14:48:41.346Z,3.75
2019-01-06T14:50:17.592Z,2.25
2019-01-06T14:52:00.484Z,2.00
2019-01-06T14:53:20.934Z,2.00
2019-01-06T14:54:41.075Z,2.00
2019-01-06T14:56:09.088Z,1.75
2019-01-06T14:57:29.371Z,4.00
2019-01-06T14:58:49.555Z,3.75
2019-01-06T15:00:03.897Z,3.75
2019-01-06T15:01:34.475Z,2.25
2019-01-06T15:03:05.287Z,2.25
2019-01-06T15:04:27.296Z,3.75
2019-01-06T15:05:48.795Z,3.25
2019-01-06T15:07:05.039Z,2.25
2019-01-06T15:08:39.016Z,1.75
2019-01-06T15:09:59.734Z,3.75
2019-01-06T15:11:21.354Z,3.75
2019-01-06T15:12:48.950Z,3.75
2019-01-06T15:14:28.715Z,3.75
2019-01-06T15:15:50.747Z,2.00
2019-01-06T15:17:12.389Z,4.00
2019-01-06T15:18:41.293Z,4.00
2019-01-06T15:20:01.959Z,3.00
2019-01-06T15:21:41.607Z,3.75
2019-01-06T15:23:06.483Z,2.00
2019-01-06T15:24:26.834Z,4.00
2019-01-06T15:25:54.841Z,2.00
2019-01-06T15:27:15.296Z,4.00
2019-01-06T15:28:38.381Z,3.75
2019-01-06T15:30:08.869Z,4.00
2019-01-06T15:31:36.098Z,4.00
2019-01-06T15:33:11.986Z,4.50
2019-01-06T15:34:36.170Z,4.00
2019-01-06T15:36:14.799Z,3.00
2019-01-06T15:37:36.385Z,4.00
2019-01-06T15:38:53.630Z,3.50
2019-01-06T15:40:14.573Z,4.00
2019-01-06T15:41:51.153Z,3.50
2019-01-06T15:43:11.740Z,4.00
2019-01-06T15:44:33.294Z,4.00
2019-01-06T15:45:53.392Z,4.00
2019-01-06T15:47:21.207Z,3.75
2019-01-06T15:48:45.536Z,4.50
2019-01-06T15:50:05.861Z,5.75
2019-01-06T15:51:39.375Z,3.75
2019-01-06T15:53:01.121Z,5.50
2019-01-06T15:54:40.437Z,6.00
2019-01-06T15:56:00.137Z,4.00
2019-01-06T15:57:20.050Z,4.00
2019-01-06T15:58:41.722Z,4.00
2019-01-06T16:00:02.370Z,5.50
2019-01-06T16:01:24.450Z,4.00
2019-01-06T16:03:00.906Z,3.75
2019-01-06T16:04:18.959Z,6.00
2019-01-06T16:05:46.238Z,6.00
2019-01-06T16:07:19.625Z,6.00
2019-01-06T16:08:39.759Z,6.00
2019-01-06T16:10:01.768Z,4.50
2019-01-06T16:11:41.886Z,6.00
2019-01-06T16:13:15.601Z,4.00
2019-01-06T16:14:55.420Z,7.00
2019-01-06T16:16:25.814Z,6.00
2019-01-06T16:17:50.940Z,6.00
2019-01-06T16:19:27.518Z,5.50
2019-01-06T16:20:48.468Z,6.00
2019-01-06T16:22:11.324Z,5.00
2019-01-06T16:23:41.713Z,6.00
2019-01-06T16:25:00.431Z,8.00
2019-01-06T16:26:27.911Z,6.50
2019-01-06T16:27:49.551Z,6.00
2019-01-06T16:29:09.874Z,5.00
2019-01-06T16:30:34.150Z,5.00
2019-01-06T16:32:07.666Z,6.00
2019-01-06T16:33:35.213Z,6.50
2019-01-06T16:34:55.731Z,6.50
2019-01-06T16:36:15.743Z,6.00
2019-01-06T16:37:51.658Z,7.25
2019-01-06T16:39:10.716Z,6.00
2019-01-06T16:40:28.586Z,10.00
2019-01-06T16:41:50.780Z,5.00
2019-01-06T16:43:16.738Z,8.25
2019-01-06T16:44:48.284Z,8.50
2019-01-06T16:46:11.384Z,9.50
2019-01-06T16:47:31.338Z,8.00
2019-01-06T16:49:11.287Z,10.00
2019-01-06T16:50:47.877Z,8.00
2019-01-06T16:52:08.348Z,8.00
2019-01-06T16:53:28.643Z,10.00
2019-01-06T16:55:02.810Z,8.00
2019-01-06T16:56:24.551Z,11.50
2019-01-06T16:57:46.259Z,10.00
2019-01-06T16:59:25.920Z,12.00
2019-01-06T17:00:57.165Z,12.00
2019-01-06T17:02:20.543Z,7.50
2019-01-06T17:03:57.825Z,11.50
2019-01-06T17:05:17.966Z,10.00
2019-01-06T17:06:37.997Z,10.00
2019-01-06T17:07:58.295Z,8.50
2019-01-06T17:09:18.975Z,12.00
2019-01-06T17:10:55.777Z,11.75
2019-01-06T17:12:16.361Z,11.50
2019-01-06T17:13:41.257Z,9.00
2019-01-06T17:15:06.686Z,10.50
2019-01-06T17:16:40.108Z,11.00
2019-01-06T17:17:55.109Z,13.00
2019-01-06T17:19:31.855Z,12.50
2019-01-06T17:20:54.182Z,8.50
2019-01-06T17:22:25.564Z,13.00
2019-01-06T17:24:05.991Z,12.00
2019-01-06T17:25:40.359Z,12.00
2019-01-06T17:27:01.218Z,9.50
2019-01-06T17:28:21.887Z,11.00
2019-01-06T17:29:42.198Z,12.00
2019-01-06T17:43:49.341Z,11.25
2019-01-06T17:45:09.364Z,12.00
2019-01-06T17:46:29.484Z,13.50
2019-01-06T17:47:54.884Z,13.75
2019-01-06T17:49:16.629Z,10.00
2019-01-06T17:50:53.348Z,13.00
2019-01-06T17:52:13.876Z,10.50
2019-01-06T17:53:50.856Z,13.00
2019-01-06T17:55:11.020Z,13.75
2019-01-06T17:56:42.040Z,13.75
2019-01-06T17:58:13.341Z,13.75
2019-01-06T17:59:40.841Z,13.00
2019-01-06T18:01:14.995Z,10.50
2019-01-06T18:02:31.752Z,13.00
2019-01-06T18:03:52.129Z,10.75
2019-01-06T18:05:15.436Z,10.75
2019-01-06T18:06:47.413Z,11.50
2019-01-06T18:08:18.908Z,14.00
2019-01-06T18:09:39.326Z,14.50
2019-01-06T18:10:59.935Z,11.00
2019-01-06T18:12:20.136Z,10.00
2019-01-06T18:13:40.680Z,12.00
2019-01-06T18:15:17.286Z,13.00
2019-01-06T18:16:38.214Z,10.50
2019-01-06T18:17:58.684Z,12.00
2019-01-06T18:19:23.467Z,10.00
2019-01-06T18:20:54.212Z,8.00
2019-01-06T18:22:16.905Z,12.50
2019-01-06T18:23:39.047Z,8.50
2019-01-06T18:25:19.291Z,13.00
2019-01-06T18:26:37.857Z,9.50
2019-01-06T18:27:58.521Z,11.50
2019-01-06T18:29:38.117Z,11.50
2019-01-06T18:30:58.696Z,12.00
2019-01-06T18:32:32.674Z,10.00
2019-01-06T18:33:54.283Z,10.00
2019-01-06T18:35:18.828Z,10.00
2019-01-06T18:36:52.878Z,10.00
2019-01-06T18:38:32.469Z,12.00
2019-01-06T18:39:51.576Z,9.50
2019-01-06T18:41:12.479Z,13.50
2019-01-06T18:42:43.545Z,12.00
2019-01-06T18:44:04.087Z,11.00
2019-01-06T18:45:29.691Z,10.00
2019-01-06T18:46:55.989Z,12.00
2019-01-06T18:48:18.343Z,10.00
2019-01-06T18:49:57.324Z,12.00
2019-01-06T18:51:22.630Z,11.00
2019-01-06T18:52:49.145Z,9.50
2019-01-06T18:54:24.117Z,10.00
2019-01-06T18:55:44.602Z,10.00
2019-01-06T18:57:15.760Z,10.50
2019-01-06T18:58:51.163Z,10.00
2019-01-06T19:00:33.615Z,8.00
2019-01-06T19:01:59.045Z,10.00
2019-01-06T19:03:15.657Z,8.00
2019-01-06T19:04:48.132Z,10.00
2019-01-06T19:06:16.844Z,10.00
2019-01-06T19:07:33.235Z,9.50
2019-01-06T19:08:54.090Z,8.50
2019-01-06T19:10:14.419Z,10.00
2019-01-06T19:11:34.733Z,11.00
2019-01-06T19:13:02.491Z,8.50
2019-01-06T19:14:41.011Z,9.00
2019-01-06T19:16:05.547Z,8.50
2019-01-06T19:17:30.606Z,12.00
2019-01-06T19:18:52.231Z,8.50
2019-01-06T19:20:14.530Z,7.00
2019-01-06T19:21:51.432Z,10.50
2019-01-06T19:23:18.065Z,7.50
2019-01-06T19:24:37.798Z,9.50
2019-01-06T19:25:58.467Z,7.50
2019-01-06T19:27:23.667Z,9.00
2019-01-06T19:28:45.924Z,6.50
2019-01-06T19:30:06.039Z,9.00
2019-01-06T19:31:41.478Z,11.00
2019-01-06T19:33:01.699Z,8.00
2019-01-06T19:34:31.944Z,9.00
2019-01-06T19:35:52.983Z,8.50
2019-01-06T19:37:13.247Z,8.50
2019-01-06T19:38:51.967Z,8.00